Time;durP1;ratioP1;P1;durP2;ratioP2;P2;SDS_P1;SDS_P2;PMS_P1;PMS_P2;Temp;Humidity;BMP_temperature;BMP_pressure;BME280_temperature;BME280_humidity;BME280_pressure;Samples;Min_cycle;Max_cycle;Signal;HPM_P1;HPM_P2
2023/02/08 00:01:10;;;;;;;44.67;31.33;;;-2.10;1.00;;;;;;5000183;28;20601;-86
2023/02/08 00:03:48;;;;;;;42.75;32.15;;;-2.10;1.00;;;;;;5011402;28;20230;-88
2023/02/08 00:06:19;;;;;;;45.80;31.40;;;-2.10;1.00;;;;;;5015680;28;20278;-86
2023/02/08 00:08:49;;;;;;;45.47;31.00;;;-2.10;1.00;;;;;;4993361;28;20438;-87
2023/02/08 00:11:20;;;;;;;47.72;34.70;;;-2.10;1.00;;;;;;5006039;28;20235;-89
2023/02/08 00:14:01;;;;;;;44.20;30.90;;;-2.20;1.00;;;;;;5007810;28;20245;-88
2023/02/08 00:16:31;;;;;;;46.78;33.30;;;-2.30;1.00;;;;;;4998505;28;20207;-86
2023/02/08 00:19:10;;;;;;;47.08;33.60;;;-2.20;1.00;;;;;;5006703;28;20230;-87
2023/02/08 00:24:32;;;;;;;44.70;31.90;;;-2.30;1.00;;;;;;5005117;28;20769;-88
2023/02/08 00:26:59;;;;;;;45.58;33.50;;;-2.30;1.00;;;;;;4968236;28;21067;-81
2023/02/08 00:29:29;;;;;;;43.60;32.30;;;-2.30;1.00;;;;;;5018928;28;20230;-81
2023/02/08 00:31:59;;;;;;;42.33;32.13;;;-2.30;1.00;;;;;;5014941;28;20306;-79
2023/02/08 00:34:30;;;;;;;39.03;30.85;;;-2.30;1.00;;;;;;5009178;28;20225;-82
2023/02/08 00:37:10;;;;;;;43.03;33.50;;;-2.30;1.00;;;;;;5028252;28;20710;-79
2023/02/08 00:39:39;;;;;;;41.70;31.30;;;-2.30;1.00;;;;;;4999782;28;20261;-79
2023/02/08 00:42:16;;;;;;;;;;;;;;;;;;;;;
2023/02/08 00:44:51;;;;;;;44.58;32.67;;;-2.30;1.00;;;;;;4970704;28;43585;-81
2023/02/08 00:47:39;;;;;;;46.40;34.17;;;-2.40;1.00;;;;;;4997428;28;20967;-78
2023/02/08 00:53:01;;;;;;;43.08;31.95;;;-2.50;1.00;;;;;;5000457;28;20237;-87
2023/02/08 00:56:00;;;;;;;39.50;31.15;;;-2.50;1.00;;;;;;5011703;28;20242;-86
2023/02/08 00:58:29;;;;;;;45.03;30.45;;;-2.60;1.00;;;;;;5015822;28;20244;-83
2023/02/08 01:01:01;;;;;;;41.45;30.80;;;-2.60;1.00;;;;;;5029889;28;20233;-87
2023/02/08 01:03:41;;;;;;;45.78;32.15;;;-2.70;1.00;;;;;;5019720;28;20263;-81
2023/02/08 01:06:28;;;;;;;46.97;34.13;;;-2.70;1.00;;;;;;5024034;28;20234;-88
2023/02/08 01:09:11;;;;;;;45.20;30.27;;;-2.60;1.00;;;;;;5023062;28;20248;-86
2023/02/08 01:14:30;;;;;;;42.88;30.17;;;-2.60;1.00;;;;;;5026191;28;20225;-88
2023/02/08 01:17:00;;;;;;;41.00;30.65;;;-2.60;1.00;;;;;;5027075;28;20226;-88
2023/02/08 01:19:40;;;;;;;42.85;29.88;;;-2.60;1.00;;;;;;5027793;28;20254;-86
2023/02/08 01:22:10;;;;;;;41.78;29.67;;;-2.60;1.00;;;;;;5017844;28;20257;-88
2023/02/08 01:24:47;;;;;;;41.30;29.17;;;-2.70;1.00;;;;;;5009036;28;20226;-86
2023/02/08 01:33:19;;;;;;;43.03;32.28;;;-2.80;1.00;;;;;;5155650;22;20239;-85
2023/02/08 01:36:02;;;;;;;41.83;29.13;;;-2.80;1.00;;;;;;5061062;28;21070;-90
2023/02/08 01:38:50;;;;;;;40.97;30.05;;;-2.80;1.00;;;;;;5058932;28;20256;-81
2023/02/08 01:41:32;;;;;;;42.42;32.00;;;-2.70;1.00;;;;;;5076154;28;20204;-88
2023/02/08 01:44:30;;;;;;;43.78;31.90;;;-2.70;1.00;;;;;;5064630;28;20254;-86
2023/02/08 01:47:30;;;;;;;43.10;29.40;;;-2.70;1.00;;;;;;5074233;28;20322;-88
2023/02/08 01:50:01;;;;;;;38.97;28.17;;;-2.70;1.00;;;;;;4971701;28;20240;-88
2023/02/08 01:52:30;;;;;;;40.47;27.77;;;-2.80;1.00;;;;;;5040654;28;20245;-83
2023/02/08 01:58:22;;;;;;;44.17;29.30;;;-2.90;1.00;;;;;;5067101;28;20236;-88
2023/02/08 02:00:51;;;;;;;39.55;27.55;;;-3.00;1.00;;;;;;5057979;28;20234;-85
2023/02/08 02:03:31;;;;;;;44.88;30.60;;;-3.00;1.00;;;;;;5049688;28;20233;-87
2023/02/08 02:06:32;;;;;;;40.97;27.70;;;-3.00;1.00;;;;;;5057654;28;20229;-81
2023/02/08 02:09:19;;;;;;;38.50;29.35;;;-2.90;1.00;;;;;;5340209;22;20248;-90
2023/02/08 02:12:19;;;;;;;40.05;29.67;;;-2.90;1.00;;;;;;5047449;28;20229;-82
2023/02/08 02:14:50;;;;;;;42.97;30.33;;;-3.00;1.00;;;;;;4980493;28;20264;-82
2023/02/08 02:17:19;;;;;;;38.08;28.20;;;-3.00;1.00;;;;;;5049545;28;20288;-81
2023/02/08 02:20:01;;;;;;;41.92;27.25;;;-3.10;1.00;;;;;;5056113;28;20242;-81
2023/02/08 02:23:12;;;;;;;41.90;29.33;;;-3.10;1.00;;;;;;5055040;28;20231;-81
2023/02/08 02:26:18;;;;;;;39.10;28.17;;;-3.20;1.00;;;;;;5059787;28;20229;-82
2023/02/08 02:29:21;;;;;;;40.03;28.25;;;-3.20;1.00;;;;;;5059529;28;20225;-87
2023/02/08 02:32:29;;;;;;;42.20;26.95;;;-3.20;1.00;;;;;;5049698;28;20239;-82
2023/02/08 02:35:20;;;;;;;38.28;26.98;;;-3.20;1.00;;;;;;5048800;28;20245;-84
2023/02/08 02:38:20;;;;;;;40.78;27.45;;;-3.30;1.00;;;;;;5047494;28;20225;-82
2023/02/08 02:41:11;;;;;;;38.22;27.20;;;-3.30;1.00;;;;;;5035562;28;20237;-86
2023/02/08 02:43:48;;;;;;;40.13;27.88;;;-3.40;1.00;;;;;;5030399;28;20245;-81
2023/02/08 02:46:39;;;;;;;43.03;29.13;;;-3.40;1.00;;;;;;5053022;28;20230;-81
2023/02/08 02:49:18;;;;;;;36.97;26.70;;;-3.40;1.00;;;;;;5060769;28;20230;-84
2023/02/08 02:52:01;;;;;;;33.78;25.95;;;-3.30;1.00;;;;;;5040132;28;20232;-81
2023/02/08 02:54:39;;;;;;;43.45;28.38;;;-3.30;1.00;;;;;;5058609;28;20255;-83
2023/02/08 02:57:12;;;;;;;36.65;27.08;;;-3.40;1.00;;;;;;5061648;28;21104;-81
2023/02/08 02:59:48;;;;;;;34.72;25.35;;;-3.40;1.00;;;;;;5059484;28;20237;-82
2023/02/08 03:02:39;;;;;;;35.55;25.92;;;-3.40;1.00;;;;;;5029181;28;20238;-82
2023/02/08 03:08:18;;;;;;;36.25;25.77;;;-3.40;1.00;;;;;;3283653;26;20732;-79
2023/02/08 03:11:00;;;;;;;40.25;26.60;;;-3.40;1.00;;;;;;5082275;28;20216;-79
2023/02/08 03:13:38;;;;;;;36.95;25.55;;;-3.40;1.00;;;;;;5068706;28;20244;-83
2023/02/08 03:16:20;;;;;;;36.45;25.33;;;-3.40;1.00;;;;;;5044363;28;21545;-79
2023/02/08 03:19:02;;;;;;;37.60;26.33;;;-3.40;1.00;;;;;;5035039;28;21129;-79
2023/02/08 03:21:40;;;;;;;38.03;24.35;;;-3.40;1.00;;;;;;5066663;28;20232;-80
2023/02/08 03:24:20;;;;;;;35.95;23.65;;;-3.40;1.00;;;;;;5075079;28;20236;-79
2023/02/08 03:26:53;;;;;;;35.67;24.45;;;-3.40;1.00;;;;;;5053045;28;20270;-79
2023/02/08 03:29:39;;;;;;;36.97;24.63;;;-3.40;1.00;;;;;;5065907;28;20322;-79
2023/02/08 03:32:20;;;;;;;33.85;24.25;;;-3.50;1.00;;;;;;5074818;28;20267;-80
2023/02/08 03:34:58;;;;;;;38.90;25.38;;;-3.50;1.00;;;;;;5046927;28;20236;-79
2023/02/08 03:37:30;;;;;;;35.97;22.02;;;-3.50;1.00;;;;;;5055106;28;20760;-79
2023/02/08 03:40:17;;;;;;;35.15;22.17;;;-3.50;1.00;;;;;;5030434;28;20236;-79
2023/02/08 03:42:54;;;;;;;30.55;22.23;;;-3.40;1.00;;;;;;5040695;28;20474;-81
2023/02/08 03:45:29;;;;;;;33.25;20.80;;;-3.50;1.00;;;;;;5068312;28;20236;-81
2023/02/08 03:48:09;;;;;;;30.85;21.50;;;-3.50;1.00;;;;;;5038982;28;20251;-79
2023/02/08 03:51:01;;;;;;;30.95;20.52;;;-3.50;1.00;;;;;;5032271;28;20311;-78
2023/02/08 03:53:37;;;;;;;28.38;21.85;;;-3.50;1.00;;;;;;5016004;28;20313;-81
2023/02/08 03:56:12;;;;;;;33.10;22.63;;;-3.60;1.00;;;;;;5066400;28;21137;-78
2023/02/08 03:58:45;;;;;;;35.05;22.58;;;-3.60;1.00;;;;;;5076050;28;21064;-82
2023/02/08 04:01:18;;;;;;;34.38;21.15;;;-3.70;1.00;;;;;;5069783;28;20240;-80
2023/02/08 04:03:55;;;;;;;34.45;21.73;;;-3.60;1.00;;;;;;5071885;28;20938;-80
2023/02/08 04:06:22;;;;;;;35.35;22.77;;;-3.70;1.00;;;;;;5059934;28;20247;-79
2023/02/08 04:08:51;;;;;;;31.42;22.50;;;-3.70;1.00;;;;;;5040006;28;20300;-80
2023/02/08 04:11:22;;;;;;;37.20;23.65;;;-3.70;1.00;;;;;;5057433;28;21289;-80
2023/02/08 04:13:51;;;;;;;32.38;22.48;;;-3.70;1.00;;;;;;5062244;28;20237;-82
2023/02/08 04:16:22;;;;;;;35.60;22.70;;;-3.70;1.00;;;;;;5065061;28;20233;-79
2023/02/08 04:18:58;;;;;;;34.15;22.23;;;-3.70;1.00;;;;;;5044121;28;20247;-79
2023/02/08 04:21:32;;;;;;;34.97;22.33;;;-3.70;1.00;;;;;;5045935;28;20351;-79
2023/02/08 04:24:02;;;;;;;30.98;20.30;;;-3.70;1.00;;;;;;5046849;28;20827;-79
2023/02/08 04:26:30;;;;;;;31.80;20.05;;;-3.80;1.00;;;;;;5050162;28;20351;-81
2023/02/08 04:29:11;;;;;;;29.25;20.27;;;-3.80;1.00;;;;;;5058512;28;20268;-78
2023/02/08 04:31:41;;;;;;;31.83;21.58;;;-3.80;1.00;;;;;;5014654;28;20244;-79
2023/02/08 04:34:10;;;;;;;31.30;20.80;;;-3.80;1.00;;;;;;5055403;28;20248;-78
2023/02/08 04:36:41;;;;;;;30.42;20.38;;;-3.80;1.00;;;;;;5036280;28;20277;-78
2023/02/08 04:39:10;;;;;;;29.83;19.77;;;-3.90;1.00;;;;;;5057171;28;20241;-78
2023/02/08 04:42:19;;;;;;;28.00;20.00;;;-3.90;1.00;;;;;;5049755;28;20261;-79
2023/02/08 04:44:52;;;;;;;33.33;20.88;;;-3.90;1.00;;;;;;5046506;28;20230;-83
2023/02/08 04:47:20;;;;;;;31.20;21.38;;;-3.90;1.00;;;;;;5063113;28;20237;-83
2023/02/08 04:49:50;;;;;;;29.92;20.65;;;-3.90;1.00;;;;;;5049643;28;20244;-80
2023/02/08 04:52:25;;;;;;;31.80;20.60;;;-3.90;1.00;;;;;;5062567;28;20309;-82
2023/02/08 04:54:52;;;;;;;31.73;20.48;;;-3.90;1.00;;;;;;5044194;28;20453;-80
2023/02/08 04:57:25;;;;;;;33.05;22.02;;;-3.90;1.00;;;;;;5042972;28;20237;-81
2023/02/08 04:59:52;;;;;;;32.20;21.23;;;-4.00;1.00;;;;;;5042072;28;20395;-82
2023/02/08 05:02:21;;;;;;;34.65;22.02;;;-3.90;1.00;;;;;;5034043;28;20241;-80
2023/02/08 05:04:49;;;;;;;32.72;19.95;;;-4.00;1.00;;;;;;5047717;28;20246;-79
2023/02/08 05:07:32;;;;;;;36.95;20.95;;;-4.00;1.00;;;;;;5060000;28;20320;-79
2023/02/08 05:10:01;;;;;;;34.42;21.05;;;-4.00;1.00;;;;;;5058085;28;20237;-79
2023/02/08 05:12:30;;;;;;;33.08;21.55;;;-4.00;1.00;;;;;;5057049;28;21116;-78
2023/02/08 05:15:11;;;;;;;31.08;19.92;;;-4.00;1.00;;;;;;5050024;28;20240;-79
2023/02/08 05:17:42;;;;;;;31.63;22.10;;;-4.10;1.00;;;;;;5036641;28;20232;-79
2023/02/08 05:20:13;;;;;;;36.00;22.38;;;-4.10;1.00;;;;;;5057790;28;20233;-78
2023/02/08 05:22:40;;;;;;;34.28;21.25;;;-4.10;1.00;;;;;;5077615;28;20247;-78
2023/02/08 05:25:12;;;;;;;32.97;21.95;;;-4.10;1.00;;;;;;5044941;28;20376;-82
2023/02/08 05:27:40;;;;;;;37.28;22.75;;;-4.10;1.00;;;;;;5054660;28;20244;-78
2023/02/08 05:30:12;;;;;;;32.90;21.67;;;-4.10;1.00;;;;;;5054423;28;20237;-82
2023/02/08 05:32:42;;;;;;;32.80;20.80;;;-4.10;1.00;;;;;;5040380;28;20721;-79
2023/02/08 05:35:11;;;;;;;33.47;20.92;;;-4.10;1.00;;;;;;5044918;28;20245;-79
2023/02/08 05:37:42;;;;;;;32.90;21.95;;;-4.10;1.00;;;;;;5035709;28;20251;-84
2023/02/08 05:40:12;;;;;;;33.63;20.42;;;-4.10;1.00;;;;;;5034156;28;20241;-79
2023/02/08 05:42:51;;;;;;;35.80;23.90;;;-4.10;1.00;;;;;;5020832;28;21342;-80
2023/02/08 05:45:20;;;;;;;37.78;21.67;;;-4.20;1.00;;;;;;5034446;28;20236;-83
2023/02/08 05:47:50;;;;;;;33.42;21.75;;;-4.10;1.00;;;;;;5046658;28;20326;-81
2023/02/08 05:50:20;;;;;;;37.70;21.20;;;-4.20;1.00;;;;;;5056622;28;20327;-80
2023/02/08 05:52:50;;;;;;;36.15;21.38;;;-4.20;1.00;;;;;;5058243;28;20307;-78
2023/02/08 05:55:27;;;;;;;39.28;23.40;;;-4.10;1.00;;;;;;5039898;28;20599;-76
2023/02/08 05:58:02;;;;;;;37.70;23.15;;;-4.20;1.00;;;;;;5070978;28;20243;-78
2023/02/08 06:00:31;;;;;;;33.20;22.05;;;-4.20;1.00;;;;;;5024278;28;20244;-77
2023/02/08 06:03:02;;;;;;;33.25;21.50;;;-4.20;1.00;;;;;;5041124;28;20318;-76
2023/02/08 06:05:34;;;;;;;39.17;22.67;;;-4.20;1.00;;;;;;5070065;28;21182;-77
2023/02/08 06:08:03;;;;;;;34.25;21.88;;;-4.20;1.00;;;;;;5068751;28;20236;-76
2023/02/08 06:10:30;;;;;;;34.38;21.27;;;-4.20;1.00;;;;;;5071321;28;20290;-79
2023/02/08 06:12:59;;;;;;;33.67;22.40;;;-4.30;1.00;;;;;;5073906;28;20244;-77
2023/02/08 06:15:26;;;;;;;41.65;23.35;;;-4.20;1.00;;;;;;5068311;28;21016;-82
2023/02/08 06:17:54;;;;;;;38.47;22.17;;;-4.20;1.00;;;;;;5075574;28;20315;-77
2023/02/08 06:20:21;;;;;;;34.45;22.05;;;-4.10;1.00;;;;;;5071698;28;20274;-80
2023/02/08 06:22:50;;;;;;;39.58;21.98;;;-4.20;1.00;;;;;;5070077;28;20232;-77
2023/02/08 06:25:19;;;;;;;36.10;23.40;;;-4.20;1.00;;;;;;5074769;28;20267;-81
2023/02/08 06:27:47;;;;;;;37.80;25.10;;;-4.20;1.00;;;;;;5067026;28;20240;-77
2023/02/08 06:30:18;;;;;;;36.63;23.10;;;-4.10;1.00;;;;;;5077899;28;20232;-78
2023/02/08 06:32:50;;;;;;;38.17;23.45;;;-4.10;1.00;;;;;;5074766;28;20241;-80
2023/02/08 06:35:21;;;;;;;44.13;27.60;;;-4.10;1.00;;;;;;5069726;28;20332;-82
2023/02/08 06:37:48;;;;;;;40.20;23.17;;;-4.10;1.00;;;;;;5079934;28;20245;-77
2023/02/08 06:40:17;;;;;;;38.17;23.30;;;-4.10;1.00;;;;;;5076750;28;20240;-81
2023/02/08 06:42:46;;;;;;;35.75;24.65;;;-4.00;1.00;;;;;;5053696;28;20236;-79
2023/02/08 06:45:18;;;;;;;36.03;23.55;;;-4.10;1.00;;;;;;5072502;28;20402;-80
2023/02/08 06:47:49;;;;;;;37.50;24.67;;;-4.00;1.00;;;;;;5052588;28;20276;-82
2023/02/08 06:50:31;;;;;;;37.08;22.92;;;-4.00;1.00;;;;;;5056521;28;21189;-80
2023/02/08 06:53:00;;;;;;;46.78;27.85;;;-4.00;1.00;;;;;;5053981;28;21148;-85
2023/02/08 06:55:32;;;;;;;36.75;23.40;;;-3.90;1.00;;;;;;5047666;28;20971;-81
2023/02/08 06:58:02;;;;;;;39.45;24.77;;;-3.90;1.00;;;;;;5037058;28;20233;-82
2023/02/08 07:00:44;;;;;;;38.70;23.33;;;-3.90;1.00;;;;;;5061008;28;20236;-85
2023/02/08 07:03:16;;;;;;;36.08;23.45;;;-3.90;1.00;;;;;;5042522;28;20263;-79
2023/02/08 07:05:47;;;;;;;34.33;22.08;;;-3.90;1.00;;;;;;5063018;28;20371;-78
2023/02/08 07:08:15;;;;;;;37.95;23.38;;;-3.90;1.00;;;;;;5079340;28;20327;-79
2023/02/08 07:10:42;;;;;;;35.92;22.42;;;-3.80;1.00;;;;;;5067388;28;20286;-80
2023/02/08 07:13:11;;;;;;;42.10;26.63;;;-3.80;1.00;;;;;;5073394;28;20240;-79
2023/02/08 07:15:40;;;;;;;37.00;23.05;;;-3.80;1.00;;;;;;5070011;28;20637;-80
2023/02/08 07:18:07;;;;;;;41.08;23.85;;;-3.70;1.00;;;;;;5065828;28;20279;-80
2023/02/08 07:20:55;;;;;;;43.08;27.50;;;-3.70;1.00;;;;;;5075228;28;20255;-81
2023/02/08 07:23:38;;;;;;;33.15;22.25;;;-3.60;1.00;;;;;;5076179;28;20236;-81
2023/02/08 07:26:29;;;;;;;35.60;22.83;;;-3.60;1.00;;;;;;5081792;28;20232;-85
2023/02/08 07:28:59;;;;;;;36.53;23.88;;;-3.60;1.00;;;;;;5074235;28;20232;-80
2023/02/08 07:31:29;;;;;;;41.28;24.08;;;-3.50;1.00;;;;;;5052057;28;20249;-83
2023/02/08 07:33:59;;;;;;;35.05;23.90;;;-3.30;1.00;;;;;;5050330;28;20242;-81
2023/02/08 07:36:28;;;;;;;34.80;26.17;;;-3.20;1.00;;;;;;5074347;28;20232;-84
2023/02/08 07:38:58;;;;;;;43.60;24.70;;;-3.20;1.00;;;;;;5047106;28;21075;-81
2023/02/08 07:41:39;;;;;;;40.88;25.63;;;-3.10;1.00;;;;;;5062490;28;20245;-78
2023/02/08 07:47:30;;;;;;;;;;;;;;;;;;;;;
2023/02/08 07:49:57;;;;;;;41.78;25.65;;;-3.10;1.00;;;;;;5045611;28;50641;-82
2023/02/08 07:52:29;;;;;;;42.00;24.52;;;-3.00;1.00;;;;;;5051651;28;20318;-79
2023/02/08 07:55:06;;;;;;;41.60;24.08;;;-3.00;1.00;;;;;;5066682;28;20233;-78
2023/02/08 07:57:39;;;;;;;39.30;25.45;;;-2.90;1.00;;;;;;5073481;28;20290;-78
2023/02/08 08:00:16;;;;;;;40.85;25.00;;;-2.80;1.00;;;;;;5067817;28;20286;-78
2023/02/08 08:02:50;;;;;;;38.47;25.17;;;-2.70;1.00;;;;;;5077142;28;20240;-80
2023/02/08 08:05:17;;;;;;;41.92;26.35;;;-2.60;1.00;;;;;;5076390;28;20711;-79
2023/02/08 08:07:45;;;;;;;41.08;25.63;;;-2.40;1.00;;;;;;5077018;28;20583;-81
2023/02/08 08:10:27;;;;;;;40.50;25.38;;;-2.30;1.00;;;;;;5063835;28;20228;-76
2023/02/08 08:15:50;;;;;;;38.35;25.10;;;-2.10;1.00;;;;;;5072312;28;20249;-78
2023/02/08 08:18:17;;;;;;;39.80;25.58;;;-2.00;1.00;;;;;;5084264;28;20248;-77
2023/02/08 08:20:53;;;;;;;39.88;25.48;;;-1.80;1.00;;;;;;5076980;28;21094;-78
2023/02/08 08:23:29;;;;;;;38.38;25.73;;;-1.70;1.00;;;;;;5071087;28;20244;-80
2023/02/08 08:26:06;;;;;;;40.60;26.88;;;-1.50;1.00;;;;;;5066570;28;21104;-78
2023/02/08 08:28:49;;;;;;;45.80;26.13;;;-1.40;1.00;;;;;;5073770;28;20321;-77
2023/02/08 08:31:24;;;;;;;37.80;24.48;;;-1.30;1.00;;;;;;5062743;28;20291;-79
2023/02/08 08:33:53;;;;;;;38.60;25.20;;;-1.20;1.00;;;;;;5073938;28;20270;-79
2023/02/08 08:36:28;;;;;;;40.42;25.70;;;-1.10;1.00;;;;;;5074655;28;21058;-78
2023/02/08 08:39:04;;;;;;;38.33;25.10;;;-1.00;1.00;;;;;;5072338;28;20290;-78
2023/02/08 08:41:34;;;;;;;36.17;25.58;;;-0.70;1.00;;;;;;5078183;28;20287;-79
2023/02/08 08:44:03;;;;;;;41.38;26.05;;;-0.40;1.00;;;;;;5073501;28;20294;-78
2023/02/08 08:46:34;;;;;;;40.95;25.10;;;-0.20;1.00;;;;;;5074343;28;20225;-80
2023/02/08 08:49:04;;;;;;;42.30;25.67;;;0.00;1.00;;;;;;5084085;28;20216;-79
2023/02/08 08:51:43;;;;;;;38.78;26.05;;;0.20;1.00;;;;;;5081075;28;20223;-78
2023/02/08 08:54:12;;;;;;;38.15;25.63;;;0.40;1.00;;;;;;5080428;28;20232;-78
2023/02/08 08:56:44;;;;;;;41.35;26.52;;;0.40;1.00;;;;;;5080004;28;20228;-79
2023/02/08 08:59:15;;;;;;;39.80;26.38;;;0.60;1.00;;;;;;5081927;28;20237;-77
2023/02/08 09:01:43;;;;;;;38.63;25.45;;;0.70;1.00;;;;;;5061704;28;20237;-79
2023/02/08 09:04:14;;;;;;;43.65;26.30;;;1.30;1.00;;;;;;5076544;28;20247;-78
2023/02/08 09:06:42;;;;;;;37.00;25.25;;;1.90;1.00;;;;;;5078350;28;20241;-78
2023/02/08 09:09:14;;;;;;;35.80;26.33;;;1.80;1.00;;;;;;5082277;28;20231;-77
2023/02/08 09:11:42;;;;;;;38.58;25.63;;;1.80;1.00;;;;;;5070503;28;20307;-77
2023/02/08 09:14:10;;;;;;;36.78;25.02;;;1.70;1.00;;;;;;5076366;28;20236;-79
2023/02/08 09:16:37;;;;;;;38.83;25.42;;;1.60;1.00;;;;;;5072514;28;20284;-79
2023/02/08 09:19:06;;;;;;;43.00;26.65;;;1.40;1.00;;;;;;5075378;28;21074;-78
2023/02/08 09:21:34;;;;;;;41.88;27.83;;;1.40;1.00;;;;;;5077232;28;20282;-79
2023/02/08 09:24:03;;;;;;;40.63;27.73;;;1.40;1.00;;;;;;5081814;28;20331;-78
2023/02/08 09:26:36;;;;;;;36.50;25.63;;;1.60;1.00;;;;;;5071995;28;20251;-80
2023/02/08 09:29:04;;;;;;;40.63;25.88;;;1.70;1.00;;;;;;5076981;28;20268;-78
2023/02/08 09:31:35;;;;;;;39.00;26.33;;;1.70;1.00;;;;;;5060866;28;20242;-80
2023/02/08 09:34:04;;;;;;;47.08;26.52;;;1.50;1.00;;;;;;5075773;28;20236;-79
2023/02/08 09:36:43;;;;;;;40.40;27.20;;;1.50;1.00;;;;;;5049512;28;20264;-82
2023/02/08 09:39:16;;;;;;;37.22;26.73;;;1.60;1.00;;;;;;5080047;28;20303;-81
2023/02/08 09:46:14;;;;;;;37.95;27.88;;;2.90;1.00;;;;;;4922065;28;20250;-84
2023/02/08 09:49:05;;;;;;;42.28;26.70;;;5.00;1.00;;;;;;4960654;28;20247;-83
2023/02/08 09:52:06;;;;;;;;;;;;;;;;;;;;;
2023/02/08 09:54:46;;;;;;;38.17;25.17;;;6.50;1.00;;;;;;5050645;28;39503;-84
2023/02/08 09:57:16;;;;;;;36.42;26.52;;;6.00;1.00;;;;;;5079035;28;20237;-82
2023/02/08 09:59:55;;;;;;;39.38;28.52;;;5.30;1.00;;;;;;5067484;28;20322;-83
2023/02/08 10:02:34;;;;;;;36.50;27.30;;;4.40;1.00;;;;;;5045207;28;20237;-82
2023/02/08 10:05:23;;;;;;;45.30;28.98;;;4.00;1.00;;;;;;5066622;28;20251;-83
2023/02/08 10:08:35;;;;;;;37.67;27.70;;;4.00;1.00;;;;;;5060999;28;20976;-82
2023/02/08 10:11:23;;;;;;;36.40;26.25;;;4.10;1.00;;;;;;5064909;28;20221;-83
2023/02/08 10:14:14;;;;;;;41.00;26.30;;;4.10;1.00;;;;;;5074525;28;20237;-85
2023/02/08 10:20:45;;;;;;;41.67;27.52;;;4.90;1.00;;;;;;5073623;28;20249;-81
2023/02/08 10:23:33;;;;;;;43.70;28.67;;;5.10;1.00;;;;;;5075505;28;20742;-82
2023/02/08 10:26:33;;;;;;;;;;;;;;;;;;;;;
2023/02/08 10:29:32;;;;;;;38.65;25.92;;;4.60;1.00;;;;;;5053703;28;50860;-84
2023/02/08 10:32:34;;;;;;;39.80;27.35;;;3.90;1.00;;;;;;5079859;28;20691;-82
2023/02/08 10:35:55;;;;;;;43.15;28.10;;;3.70;1.00;;;;;;5060780;28;20327;-82
2023/02/08 10:39:03;;;;;;;46.28;28.15;;;3.90;1.00;;;;;;5059573;28;20725;-84
2023/02/08 10:44:35;;;;;;;44.42;27.48;;;4.90;1.00;;;;;;5054817;28;20236;-83
2023/02/08 10:47:16;;;;;;;38.75;26.80;;;5.90;1.00;;;;;;5073334;28;20268;-79
2023/02/08 10:49:55;;;;;;;40.20;27.80;;;6.10;1.00;;;;;;5043373;28;20713;-81
2023/02/08 10:52:34;;;;;;;36.83;26.02;;;5.90;1.00;;;;;;5077163;28;20251;-81
2023/02/08 10:55:25;;;;;;;43.97;27.60;;;5.40;1.00;;;;;;5075647;28;20248;-80
2023/02/08 10:58:04;;;;;;;35.90;25.98;;;5.20;1.00;;;;;;5061765;28;20263;-81
2023/02/08 11:03:33;;;;;;;36.92;26.50;;;6.50;1.00;;;;;;5052664;28;20269;-83
2023/02/08 11:06:03;;;;;;;36.70;26.33;;;7.60;1.00;;;;;;5029293;28;20234;-84
2023/02/08 11:08:53;;;;;;;38.20;25.08;;;7.00;1.00;;;;;;5055867;28;20225;-82
2023/02/08 11:11:32;;;;;;;33.55;23.88;;;6.90;1.00;;;;;;5061854;28;20229;-78
2023/02/08 11:14:23;;;;;;;37.70;26.63;;;5.90;1.00;;;;;;5035778;28;20234;-83
2023/02/08 11:17:03;;;;;;;32.00;23.40;;;5.40;1.00;;;;;;5053002;28;20232;-85
2023/02/08 11:19:45;;;;;;;36.40;25.85;;;5.20;1.00;;;;;;5056496;28;20230;-86
2023/02/08 11:22:25;;;;;;;38.22;25.65;;;5.40;1.00;;;;;;5063406;28;20253;-83
2023/02/08 11:25:04;;;;;;;37.85;27.55;;;6.30;1.00;;;;;;5039687;28;20273;-81
2023/02/08 11:27:35;;;;;;;36.55;25.33;;;7.30;1.00;;;;;;5055775;28;20237;-81
2023/02/08 11:30:36;;;;;;;37.17;26.67;;;7.90;1.00;;;;;;5061796;28;20226;-80
2023/02/08 11:33:25;;;;;;;37.50;25.52;;;7.80;1.00;;;;;;5044091;28;21058;-82
2023/02/08 11:36:16;;;;;;;34.78;26.27;;;7.70;1.00;;;;;;5060300;28;20246;-79
2023/02/08 11:38:44;;;;;;;35.42;25.75;;;8.10;1.00;;;;;;5059701;28;20245;-81
2023/02/08 11:41:17;;;;;;;35.85;26.52;;;8.60;1.00;;;;;;5063738;28;20302;-83
2023/02/08 11:44:06;;;;;;;38.53;26.80;;;9.00;1.00;;;;;;5068165;28;20346;-80
2023/02/08 11:46:38;;;;;;;35.85;26.60;;;9.20;1.00;;;;;;5061807;28;20230;-81
2023/02/08 11:49:05;;;;;;;33.80;25.00;;;9.40;1.00;;;;;;5060203;28;20252;-80
2023/02/08 11:51:36;;;;;;;31.90;24.40;;;8.90;1.00;;;;;;5061529;28;20268;-82
2023/02/08 11:54:06;;;;;;;32.17;25.20;;;8.60;1.00;;;;;;5049159;28;20267;-84
2023/02/08 11:56:43;;;;;;;39.03;27.40;;;8.90;1.00;;;;;;5056568;28;20366;-84
2023/02/08 11:59:35;;;;;;;39.63;27.63;;;9.20;1.00;;;;;;5047218;28;20330;-87
2023/02/08 12:02:45;;;;;;;33.53;25.35;;;9.70;1.00;;;;;;5054032;28;20229;-85
2023/02/08 12:05:34;;;;;;;35.03;26.20;;;10.90;1.00;;;;;;5064567;28;20238;-84
2023/02/08 12:08:25;;;;;;;38.50;26.00;;;10.70;1.00;;;;;;5061171;28;20528;-84
2023/02/08 12:11:24;;;;;;;34.47;25.90;;;11.10;1.00;;;;;;5065583;28;20433;-84
2023/02/08 12:14:36;;;;;;;34.40;25.07;;;10.50;1.00;;;;;;5051280;28;20453;-84
2023/02/08 12:17:35;;;;;;;33.92;25.48;;;10.10;1.00;;;;;;5011234;28;20411;-84
2023/02/08 12:20:44;;;;;;;30.97;24.13;;;11.00;1.00;;;;;;5063896;28;20237;-85
2023/02/08 12:23:54;;;;;;;31.73;23.90;;;11.80;1.00;;;;;;5068580;28;20670;-86
2023/02/08 12:26:53;;;;;;;36.97;25.87;;;11.40;1.00;;;;;;5047244;28;20432;-85
2023/02/08 12:30:07;;;;;;;32.43;24.37;;;11.70;1.00;;;;;;5028296;28;20483;-85
2023/02/08 12:33:24;;;;;;;31.50;22.83;;;12.80;1.00;;;;;;5028794;28;20484;-84
2023/02/08 12:36:32;;;;;;;32.03;24.43;;;12.80;1.00;;;;;;5031609;28;20420;-85
2023/02/08 12:43:16;;;;;;;;;;;;;;;;;;;;;
2023/02/08 12:46:35;;;;;;;33.83;24.67;;;14.40;1.00;;;;;;5051419;28;41168;-86
2023/02/08 12:50:04;;;;;;;29.80;24.97;;;14.30;1.00;;;;;;4954591;28;20487;-85
2023/02/08 12:56:26;;;;;;;30.47;23.67;;;13.70;1.00;;;;;;5004238;28;20456;-87
2023/02/08 13:16:56;;;;;;;;;;;;;;;;;;;;;
2023/02/08 13:23:13;;;;;;;32.77;25.30;;;10.20;1.00;;;;;;4763150;29;20448;-85
2023/02/08 13:25:57;;;;;;;36.53;26.23;;;10.50;1.00;;;;;;4770524;29;20461;-86
2023/02/08 13:28:25;;;;;;;33.00;24.75;;;10.40;1.00;;;;;;4819001;29;20443;-87
2023/02/08 13:31:33;;;;;;;33.70;25.20;;;9.70;1.00;;;;;;4811610;29;20329;-86
2023/02/08 13:37:36;;;;;;;34.03;24.77;;;12.00;1.00;;;;;;4805968;29;20460;-87
2023/02/08 14:07:57;;;;;;;39.80;24.23;;;8.10;1.00;;;;;;5837343;22;10671563;-83
2023/02/08 14:10:46;;;;;;;37.13;24.70;;;5.40;1.00;;;;;;6205597;23;20279;-83
2023/02/08 14:13:42;;;;;;;34.15;23.52;;;5.20;1.00;;;;;;6214557;23;20266;-85
2023/02/08 14:16:34;;;;;;;38.08;24.88;;;4.90;1.00;;;;;;6205224;23;20220;-83
2023/02/08 14:25:54;;;;;;;36.78;23.63;;;4.60;1.00;;;;;;6171343;22;20240;-85
2023/02/08 14:28:44;;;;;;;37.38;23.50;;;4.50;1.00;;;;;;6136957;23;20226;-83
2023/02/08 14:31:25;;;;;;;48.83;25.50;;;4.30;1.00;;;;;;6165303;23;20194;-84
2023/02/08 14:40:56;;;;;;;33.65;22.33;;;4.10;1.00;;;;;;6165802;23;20340;-84
2023/02/08 14:43:48;;;;;;;33.70;22.55;;;3.80;1.00;;;;;;6168993;23;20189;-82
2023/02/08 14:46:46;;;;;;;34.35;20.83;;;3.70;1.00;;;;;;6147101;23;20209;-84
2023/02/08 14:49:16;;;;;;;31.92;22.13;;;3.60;1.00;;;;;;6215299;23;20194;-85
2023/02/08 14:52:14;;;;;;;;;;;;;;;;;;;;;
2023/02/08 14:55:13;;;;;;;32.60;22.27;;;3.30;1.00;;;;;;6210429;23;39792;-86
2023/02/08 14:57:53;;;;;;;34.03;21.95;;;3.20;1.00;;;;;;6197763;23;20209;-84
2023/02/08 15:00:53;;;;;;;32.53;22.15;;;3.20;1.00;;;;;;6208509;23;20420;-81
2023/02/08 15:03:27;;;;;;;40.60;26.80;;;3.20;1.00;;;;;;6194222;23;20222;-83
2023/02/08 15:06:45;;;;;;;39.78;24.92;;;3.20;1.00;;;;;;6214363;23;20198;-85
2023/02/08 15:09:24;;;;;;;37.40;24.95;;;3.20;1.00;;;;;;6207157;23;20198;-81
2023/02/08 15:12:16;;;;;;;38.20;23.60;;;3.10;1.00;;;;;;6203002;23;20237;-84
2023/02/08 15:14:47;;;;;;;44.90;25.55;;;3.10;1.00;;;;;;6181514;23;20263;-85
2023/02/08 15:17:44;;;;;;;38.10;24.13;;;3.10;1.00;;;;;;6194136;23;20202;-87
2023/02/08 15:20:25;;;;;;;38.50;24.38;;;3.00;1.00;;;;;;6207916;23;20214;-80
2023/02/08 15:23:34;;;;;;;;;;;;;;;;;;;;;
2023/02/08 15:26:26;;;;;;;31.13;22.27;;;2.90;1.00;;;;;;6112966;23;50693;-84
2023/02/08 15:29:06;;;;;;;37.45;24.27;;;2.90;1.00;;;;;;6148473;23;20202;-81
2023/02/08 15:31:35;;;;;;;37.88;23.33;;;2.80;1.00;;;;;;6162960;23;20219;-80
2023/02/08 15:34:06;;;;;;;38.75;23.10;;;2.70;1.00;;;;;;6202179;23;20210;-81
2023/02/08 15:36:44;;;;;;;38.22;23.30;;;2.60;1.00;;;;;;6201142;23;20221;-80
2023/02/08 15:39:27;;;;;;;37.15;22.75;;;2.50;1.00;;;;;;6202783;23;20225;-79
2023/02/08 15:42:03;;;;;;;35.08;22.50;;;2.50;1.00;;;;;;6180913;23;21034;-82
2023/02/08 15:44:36;;;;;;;43.75;23.58;;;2.40;1.00;;;;;;6173261;23;20207;-80